createdAt,value
2023-10-08T00:01:16.321Z,55.50
2023-10-08T00:06:23.134Z,55.86
2023-10-08T00:11:25.461Z,55.72
2023-10-08T00:16:30.047Z,55.00
2023-10-08T00:21:34.901Z,54.49
2023-10-08T00:26:41.844Z,54.17
2023-10-08T00:31:47.044Z,53.54
2023-10-08T00:36:50.677Z,53.40
2023-10-08T00:42:01.147Z,53.52
2023-10-08T00:47:06.366Z,53.72
2023-10-08T00:52:11.547Z,54.30
2023-10-08T00:57:23.114Z,54.35
2023-10-08T01:02:56.874Z,54.23
2023-10-08T01:08:00.360Z,54.05
2023-10-08T01:13:02.655Z,54.61
2023-10-08T01:18:16.431Z,54.76
2023-10-08T01:23:22.317Z,54.77
2023-10-08T01:28:30.452Z,54.37
2023-10-08T01:33:33.790Z,54.66
2023-10-08T01:38:36.546Z,55.04
2023-10-08T01:43:40.300Z,55.23
2023-10-08T01:48:46.720Z,54.42
2023-10-08T01:53:49.515Z,54.62
2023-10-08T01:58:52.112Z,54.96
2023-10-08T02:03:54.755Z,55.46
2023-10-08T02:08:57.469Z,55.22
2023-10-08T02:13:59.918Z,54.83
2023-10-08T02:19:02.169Z,54.81
2023-10-08T02:24:04.842Z,55.04
2023-10-08T02:29:12.128Z,55.26
2023-10-08T02:34:14.963Z,55.34
2023-10-08T02:39:24.813Z,55.35
2023-10-08T02:44:28.923Z,55.59
2023-10-08T02:49:33.300Z,55.88
2023-10-08T02:54:38.998Z,55.59
2023-10-08T02:59:42.671Z,55.30
2023-10-08T03:04:47.190Z,56.04
2023-10-08T03:10:05.194Z,56.54
2023-10-08T03:15:26.742Z,56.34
2023-10-08T03:20:40.233Z,55.77
2023-10-08T03:25:47.542Z,55.95
2023-10-08T03:30:51.468Z,56.36
2023-10-08T03:35:56.598Z,56.57
2023-10-08T03:41:05.140Z,56.42
2023-10-08T03:46:07.452Z,56.18
2023-10-08T03:51:13.340Z,56.41
2023-10-08T03:56:16.049Z,56.64
2023-10-08T04:01:22.507Z,56.44
2023-10-08T04:06:32.982Z,55.78
2023-10-08T04:11:43.572Z,56.17
2023-10-08T04:16:47.094Z,56.58
2023-10-08T04:21:58.713Z,56.51
2023-10-08T04:27:00.999Z,56.16
2023-10-08T04:32:09.236Z,56.12
2023-10-08T04:37:14.416Z,56.31
2023-10-08T04:42:19.783Z,56.39
2023-10-08T04:47:34.424Z,55.94
2023-10-08T04:52:47.082Z,55.57
2023-10-08T04:57:50.686Z,55.62
2023-10-08T05:02:55.747Z,55.72
2023-10-08T05:08:18.521Z,56.47
2023-10-08T05:13:32.054Z,55.81
2023-10-08T05:19:00.136Z,56.07
2023-10-08T05:24:14.188Z,55.85
2023-10-08T05:29:51.452Z,55.91
2023-10-08T05:35:13.668Z,55.56
2023-10-08T05:40:35.774Z,56.02
2023-10-08T05:45:38.378Z,56.46
2023-10-08T05:50:43.861Z,56.73
2023-10-08T05:55:49.448Z,56.68
2023-10-08T06:00:52.919Z,56.59
2023-10-08T06:06:15.144Z,56.80
2023-10-08T06:11:55.498Z,56.88
2023-10-08T06:17:17.568Z,56.96
2023-10-08T06:22:20.748Z,57.40
2023-10-08T06:27:26.937Z,58.04
2023-10-08T06:32:31.896Z,57.95
2023-10-08T06:37:36.307Z,57.08
2023-10-08T06:42:39.209Z,56.39
2023-10-08T06:47:42.091Z,56.35
2023-10-08T06:52:45.069Z,56.50
2023-10-08T06:57:49.489Z,56.00
2023-10-08T07:02:52.647Z,55.20
2023-10-08T07:07:55.009Z,55.13
2023-10-08T07:12:57.264Z,55.30
2023-10-08T07:18:09.754Z,55.01
2023-10-08T07:23:20.335Z,54.66
2023-10-08T07:28:22.647Z,53.99
2023-10-08T07:33:26.695Z,53.88
2023-10-08T07:38:30.180Z,53.70
2023-10-08T07:43:34.254Z,53.68
2023-10-08T07:48:44.568Z,52.92
2023-10-08T07:53:48.509Z,52.92
2023-10-08T07:58:52.347Z,52.88
2023-10-08T08:03:54.772Z,53.07
2023-10-08T08:08:57.184Z,52.97
2023-10-08T08:14:00.929Z,52.37
2023-10-08T08:19:03.499Z,52.00
2023-10-08T08:24:09.381Z,52.29
2023-10-08T08:29:16.957Z,51.54
2023-10-08T08:34:21.335Z,50.30
2023-10-08T08:39:33.849Z,50.52
2023-10-08T08:44:48.945Z,50.10
2023-10-08T08:49:54.973Z,50.02
2023-10-08T08:54:58.338Z,49.68
2023-10-08T09:00:01.151Z,50.01
2023-10-08T09:05:14.634Z,49.62
2023-10-08T09:10:19.591Z,48.93
2023-10-08T09:15:24.213Z,48.68
2023-10-08T09:20:28.119Z,48.29
2023-10-08T09:25:34.091Z,47.55
2023-10-08T09:30:41.438Z,47.34
2023-10-08T09:35:47.673Z,47.25
2023-10-08T09:40:50.436Z,47.05
2023-10-08T09:46:07.351Z,45.94
2023-10-08T09:51:14.081Z,45.70
2023-10-08T09:56:17.451Z,44.85
2023-10-08T10:01:24.140Z,44.34
2023-10-08T10:06:26.599Z,44.09
2023-10-08T10:11:30.660Z,43.39
2023-10-08T10:16:32.956Z,42.98
2023-10-08T10:21:35.590Z,42.29
2023-10-08T10:26:42.020Z,42.32
2023-10-08T10:31:50.713Z,42.19
2023-10-08T10:36:57.753Z,42.21
2023-10-08T10:42:04.674Z,41.48
2023-10-08T10:47:19.314Z,40.93
2023-10-08T10:52:44.643Z,40.60
2023-10-08T10:57:58.520Z,40.43
2023-10-08T11:03:04.552Z,40.34
2023-10-08T11:08:10.496Z,39.95
2023-10-08T11:13:18.785Z,39.25
2023-10-08T11:18:23.315Z,38.78
2023-10-08T11:23:43.421Z,37.88
2023-10-08T11:28:48.769Z,37.77
2023-10-08T11:33:56.804Z,37.68
2023-10-08T11:39:13.131Z,36.45
2023-10-08T11:44:15.856Z,35.73
2023-10-08T11:49:27.101Z,35.58
2023-10-08T11:54:29.536Z,35.62
2023-10-08T11:59:33.692Z,33.62
2023-10-08T12:04:37.818Z,33.65
2023-10-08T12:09:42.502Z,33.53
2023-10-08T12:14:48.779Z,33.01
2023-10-08T12:19:53.089Z,33.05
2023-10-08T12:24:55.307Z,31.87
2023-10-08T12:30:00.780Z,32.06
2023-10-08T12:35:03.156Z,31.97
2023-10-08T12:40:13.347Z,31.86
2023-10-08T12:45:15.714Z,32.56
2023-10-08T12:50:51.839Z,32.78
2023-10-08T12:55:59.564Z,32.15
2023-10-08T13:01:05.373Z,31.67
2023-10-08T13:06:07.804Z,30.51
2023-10-08T13:11:10.046Z,31.28
2023-10-08T13:16:12.440Z,30.87
2023-10-08T13:21:15.026Z,31.23
2023-10-08T13:26:18.700Z,30.88
2023-10-08T13:31:21.531Z,29.98
2023-10-08T13:36:27.164Z,30.73
2023-10-08T13:41:32.050Z,30.68
2023-10-08T13:46:38.304Z,30.84
2023-10-08T13:51:40.584Z,30.08
2023-10-08T13:56:49.958Z,29.66
2023-10-08T14:01:56.535Z,30.02
2023-10-08T14:07:00.102Z,29.38
2023-10-08T14:12:02.480Z,29.07
2023-10-08T14:17:07.735Z,28.36
2023-10-08T14:22:15.961Z,28.57
2023-10-08T14:27:20.108Z,28.42
2023-10-08T14:32:22.380Z,28.30
2023-10-08T14:37:43.251Z,28.18
2023-10-08T14:43:00.032Z,28.15
2023-10-08T14:48:07.173Z,28.83
2023-10-08T14:53:09.700Z,28.42
2023-10-08T14:58:12.420Z,28.71
2023-10-08T15:03:15.030Z,28.74
2023-10-08T15:08:20.183Z,28.88
2023-10-08T15:13:22.862Z,28.88
2023-10-08T15:18:33.313Z,29.02
2023-10-08T15:23:37.151Z,28.82
2023-10-08T15:28:42.097Z,29.18
2023-10-08T15:33:44.492Z,30.02
2023-10-08T15:38:47.115Z,31.05
2023-10-08T15:43:53.303Z,31.12
2023-10-08T15:48:55.709Z,31.42
2023-10-08T15:53:58.052Z,32.15
2023-10-08T15:59:00.592Z,31.96
2023-10-08T16:04:03.125Z,32.14
2023-10-08T16:09:07.405Z,33.01
2023-10-08T16:14:09.678Z,33.97
2023-10-08T16:19:12.190Z,34.09
2023-10-08T16:24:14.707Z,35.56
2023-10-08T16:29:17.179Z,36.69
2023-10-08T16:34:19.900Z,37.57
2023-10-08T16:39:25.871Z,38.86
2023-10-08T16:44:28.274Z,40.11
2023-10-08T16:49:30.786Z,40.61
2023-10-08T16:54:33.279Z,41.48
2023-10-08T16:59:38.931Z,42.00
2023-10-08T17:04:48.615Z,42.01
2023-10-08T17:09:53.079Z,42.46
2023-10-08T17:14:55.910Z,42.67
2023-10-08T17:19:58.457Z,42.95
2023-10-08T17:25:00.892Z,42.85
2023-10-08T17:30:07.716Z,43.06
2023-10-08T17:35:10.700Z,43.35
2023-10-08T17:40:13.475Z,43.75
2023-10-08T17:45:16.424Z,43.75
2023-10-08T17:50:19.257Z,43.99
2023-10-08T17:55:21.773Z,44.36
2023-10-08T18:00:28.331Z,45.27
2023-10-08T18:05:33.346Z,45.55
2023-10-08T18:10:37.350Z,45.60
2023-10-08T18:15:40.360Z,45.78
2023-10-08T18:20:45.905Z,46.06
2023-10-08T18:25:48.223Z,45.91
2023-10-08T18:30:51.560Z,45.66
2023-10-08T18:35:54.262Z,46.01
2023-10-08T18:40:57.320Z,46.76
2023-10-08T18:46:00.885Z,46.84
2023-10-08T18:51:13.107Z,46.63
2023-10-08T18:56:20.326Z,47.14
2023-10-08T19:01:30.903Z,47.35
2023-10-08T19:06:33.550Z,48.09
2023-10-08T19:11:36.821Z,48.14
2023-10-08T19:16:39.959Z,48.22
2023-10-08T19:21:42.248Z,48.52
2023-10-08T19:26:44.661Z,48.86
2023-10-08T19:31:47.799Z,48.79
2023-10-08T19:36:50.883Z,48.56
2023-10-08T19:41:53.526Z,48.89
2023-10-08T19:46:56.631Z,49.44
2023-10-08T19:51:59.174Z,50.05
2023-10-08T19:57:02.538Z,49.89
2023-10-08T20:02:04.897Z,49.78
2023-10-08T20:07:09.046Z,50.53
2023-10-08T20:12:11.746Z,51.23
2023-10-08T20:17:14.663Z,51.17
2023-10-08T20:22:18.027Z,51.07
2023-10-08T20:27:21.669Z,50.84
2023-10-08T20:32:30.970Z,50.81
2023-10-08T20:37:34.770Z,50.56
2023-10-08T20:42:38.135Z,50.18
2023-10-08T20:47:41.739Z,49.65
2023-10-08T20:52:47.496Z,50.11
2023-10-08T20:57:51.004Z,50.04
2023-10-08T21:02:53.333Z,49.89
2023-10-08T21:07:56.172Z,49.89
2023-10-08T21:12:58.503Z,49.88
2023-10-08T21:18:00.753Z,50.18
2023-10-08T21:23:06.741Z,50.67
2023-10-08T21:28:10.610Z,51.42
2023-10-08T21:33:13.237Z,51.61
2023-10-08T21:38:15.714Z,52.05
2023-10-08T21:43:30.069Z,51.59
2023-10-08T21:48:35.491Z,51.95
2023-10-08T21:53:37.896Z,52.48
2023-10-08T21:58:40.990Z,52.11
2023-10-08T22:03:45.524Z,52.29
2023-10-08T22:08:50.296Z,52.22
2023-10-08T22:13:53.135Z,52.16
2023-10-08T22:18:58.373Z,51.59
2023-10-08T22:24:01.420Z,51.30
2023-10-08T22:29:04.261Z,51.53
2023-10-08T22:34:17.127Z,51.49
2023-10-08T22:39:22.259Z,51.63
2023-10-08T22:44:27.767Z,50.41
2023-10-08T22:49:33.368Z,50.35
2023-10-08T22:54:36.453Z,50.38
2023-10-08T22:59:41.480Z,49.41
2023-10-08T23:04:45.591Z,48.46
2023-10-08T23:09:47.985Z,47.48
2023-10-08T23:14:50.225Z,47.69
2023-10-08T23:19:53.137Z,47.33
2023-10-08T23:24:57.357Z,46.75
2023-10-08T23:29:59.985Z,46.37
2023-10-08T23:35:02.465Z,46.73
2023-10-08T23:40:20.407Z,47.31
2023-10-08T23:45:28.356Z,47.44
2023-10-08T23:50:35.270Z,48.33
2023-10-08T23:55:57.538Z,47.53
